^^
Saratoga-Weather Station Historical Data
Daily Summary for November 28, 2020 Units:  English    Metric   Both
Daily Weekly Monthly Yearly Custom
  High: Low: Average:
Temperature: 41.2 °F 32.5 °F 35.2 °F
Dew Point: 39 °F 31.8 °F 34.5 °F
Humidity: 98% 92% 97%
Wind Speed: 4mph 0mph 0.8mph
Wind Gust: 8mph - -
Wind- - East
Pressure: 30.1 in 30.1 in -
Precipitation: 0.01 in    
Historical Graphs
 
 
Tabular Data for November 28, 2020
Time Temperature Dew Point Pressure Wind Wind Speed Wind Gust Humidity Rainfall Rate (Hourly) solar
00:00 35.4 °F 34.7 °F 30.1 in Calm     97% 0 in 0 W/m2
00:05 35.2 °F 34.5 °F 30.1 in Calm     97% 0 in 0 W/m2
00:10 35.1 °F 34.3 °F 30.1 in Calm     97% 0 in 0 W/m2
00:15 35.1 °F 34.3 °F 30.1 in Calm     97% 0 in 0 W/m2
00:20 34.9 °F 34.2 °F 30.1 in Calm     97% 0 in 0 W/m2
00:25 34.7 °F 34 °F 30.1 in Calm     97% 0 in 0 W/m2
00:30 34.7 °F 34 °F 30.1 in Calm     97% 0 in 0 W/m2
00:35 34.5 °F 33.8 °F 30.1 in Calm     97% 0 in 0 W/m2
00:40 34.3 °F 33.6 °F 30.1 in Calm     97% 0 in 0 W/m2
00:45 34.2 °F 33.4 °F 30.1 in Calm     97% 0 in 0 W/m2
00:50 34.2 °F 33.4 °F 30.1 in Calm     97% 0 in 0 W/m2
00:55 34 °F 33.3 °F 30.1 in Calm     97% 0 in 0 W/m2
01:00 34 °F 33.3 °F 30.1 in Calm     97% 0 in 0 W/m2
01:05 33.8 °F 33.1 °F 30.1 in Calm     97% 0 in 0 W/m2
01:10 33.6 °F 32.9 °F 30.1 in Calm     97% 0 in 0 W/m2
01:15 33.6 °F 32.9 °F 30.1 in Calm     97% 0 in 0 W/m2
01:20 33.6 °F 32.9 °F 30.1 in Calm   1 mph 97% 0 in 0 W/m2
01:25 33.8 °F 33.1 °F 30.1 in Calm     97% 0 in 0 W/m2
01:30 33.8 °F 33.1 °F 30.1 in Calm     97% 0 in 0 W/m2
01:35 33.6 °F 32.9 °F 30.1 in Calm     97% 0 in 0 W/m2
01:40 33.4 °F 32.7 °F 30.1 in Calm     97% 0 in 0 W/m2
01:45 33.3 °F 32.5 °F 30.1 in Calm     97% 0 in 0 W/m2
01:51 33.1 °F 32.4 °F 30.1 in Calm     97% 0 in 0 W/m2
01:56 33.1 °F 32.4 °F 30.1 in Calm     97% 0 in 0 W/m2
02:01 33.1 °F 32.4 °F 30.1 in Calm     97% 0 in 0 W/m2
02:06 33.1 °F 32.4 °F 30.1 in Calm     97% 0 in 0 W/m2
02:11 33.1 °F 32.4 °F 30.1 in Calm     97% 0 in 0 W/m2
02:16 33.3 °F 32.5 °F 30.1 in Calm     97% 0 in 0 W/m2
02:21 33.3 °F 32.5 °F 30.1 in Calm     97% 0 in 0 W/m2
02:26 33.3 °F 32.5 °F 30.1 in Calm     97% 0 in 0 W/m2
02:31 33.4 °F 32.7 °F 30.1 in Calm     97% 0 in 0 W/m2
02:36 33.3 °F 32.5 °F 30.1 in Calm     97% 0 in 0 W/m2
02:41 33.3 °F 32.5 °F 30.1 in Calm     97% 0 in 0 W/m2
02:46 33.3 °F 32.5 °F 30.1 in Calm     97% 0 in 0 W/m2
02:51 33.4 °F 32.7 °F 30.1 in East 0.9 mph 3 mph 97% 0 in 0 W/m2
02:56 33.4 °F 32.7 °F 30.1 in East 0.9 mph 2 mph 97% 0 in 0 W/m2
03:01 33.4 °F 32.7 °F 30.1 in Calm   3 mph 97% 0 in 0 W/m2
03:06 33.3 °F 32.5 °F 30.1 in ESE 2 mph 2 mph 97% 0 in 0 W/m2
03:11 33.3 °F 32.5 °F 30.1 in Calm   1 mph 97% 0 in 0 W/m2
03:16 33.1 °F 32.4 °F 30.1 in Calm   1 mph 97% 0 in 0 W/m2
03:21 32.9 °F 32.2 °F 30.1 in Calm     97% 0 in 0 W/m2
03:26 32.7 °F 32 °F 30.1 in Calm   1 mph 97% 0 in 0 W/m2
03:31 32.5 °F 31.8 °F 30.1 in Calm   1 mph 97% 0 in 0 W/m2
03:36 32.5 °F 31.8 °F 30.1 in Calm   1 mph 97% 0 in 0 W/m2
03:41 32.5 °F 31.8 °F 30.1 in Calm     97% 0 in 0 W/m2
03:46 32.5 °F 31.8 °F 30.1 in Calm     97% 0 in 0 W/m2
03:51 32.5 °F 31.8 °F 30.1 in Calm   1 mph 97% 0 in 0 W/m2
03:56 32.7 °F 32 °F 30.1 in ESE 0.9 mph 2 mph 97% 0 in 0 W/m2
04:01 32.9 °F 32.2 °F 30.1 in Calm     97% 0 in 0 W/m2
04:06 33.1 °F 32.4 °F 30.1 in ESE 0.9 mph 2 mph 97% 0 in 0 W/m2
04:11 33.3 °F 32.5 °F 30.1 in Calm   2 mph 97% 0 in 0 W/m2
04:16 33.3 °F 32.5 °F 30.1 in Calm     97% 0 in 0 W/m2
04:21 33.4 °F 32.7 °F 30.1 in East 0.9 mph 3 mph 97% 0 in 0 W/m2
04:26 33.4 °F 32.7 °F 30.1 in East 0.9 mph 1 mph 97% 0 in 0 W/m2
04:31 33.6 °F 33.1 °F 30.1 in ENE 0.9 mph 3 mph 98% 0 in 0 W/m2
04:36 33.6 °F 33.1 °F 30.1 in Calm   2 mph 98% 0 in 0 W/m2
04:41 33.8 °F 33.3 °F 30.1 in Calm   2 mph 98% 0 in 0 W/m2
04:46 33.8 °F 33.1 °F 30.1 in ENE 0.9 mph 1 mph 97% 0 in 0 W/m2
04:51 34 °F 33.3 °F 30.1 in Calm   2 mph 97% 0 in 0 W/m2
04:56 34 °F 33.3 °F 30.1 in Calm     97% 0 in 0 W/m2
05:01 34 °F 33.3 °F 30.1 in Calm     97% 0 in 0 W/m2
05:06 34 °F 33.3 °F 30.1 in Calm     97% 0 in 0 W/m2
05:11 34 °F 33.3 °F 30.1 in Calm   1 mph 97% 0 in 0 W/m2
05:16 34 °F 33.3 °F 30.1 in Calm     97% 0 in 0 W/m2
05:21 34.2 °F 33.6 °F 30.1 in ESE 2.9 mph 4 mph 98% 0 in 0 W/m2
05:26 34.2 °F 33.6 °F 30.1 in SE 2.9 mph 4 mph 98% 0 in 0 W/m2
05:31 34.2 °F 33.6 °F 30.1 in ENE 4 mph 8 mph 98% 0 in 0 W/m2
05:36 34 °F 33.3 °F 30.1 in NE 2 mph 4 mph 97% 0 in 0 W/m2
05:41 34 °F 33.3 °F 30.1 in ENE 0.9 mph 3 mph 97% 0 in 0 W/m2
05:46 33.8 °F 33.1 °F 30.1 in ENE 0.9 mph 2 mph 97% 0 in 0 W/m2
05:51 33.8 °F 33.3 °F 30.1 in NE 0.9 mph 3 mph 98% 0 in 0 W/m2
05:56 33.8 °F 33.1 °F 30.1 in NE 2.9 mph 3 mph 97% 0 in 0 W/m2
06:01 33.8 °F 33.1 °F 30.1 in NE 0.9 mph 3 mph 97% 0 in 0 W/m2
06:06 33.8 °F 33.1 °F 30.1 in ENE 0.9 mph 2 mph 97% 0 in 0 W/m2
06:11 33.8 °F 33.1 °F 30.1 in ENE 2.9 mph 3 mph 97% 0 in 0 W/m2
06:16 33.8 °F 33.1 °F 30.1 in Calm   2 mph 97% 0 in 0 W/m2
06:21 33.8 °F 33.3 °F 30.1 in NE 2 mph 2 mph 98% 0 in 0 W/m2
06:26 33.8 °F 33.1 °F 30.1 in ENE 0.9 mph 1 mph 97% 0 in 0 W/m2
06:31 33.8 °F 33.1 °F 30.1 in Calm   4 mph 97% 0 in 0 W/m2
06:36 33.8 °F 33.1 °F 30.1 in ENE 2 mph 2 mph 97% 0 in 0 W/m2
06:41 33.8 °F 33.1 °F 30.1 in Calm   2 mph 97% 0 in 0 W/m2
06:46 34 °F 33.3 °F 30.1 in NE 2 mph 3 mph 97% 0 in 0 W/m2
06:51 34 °F 33.3 °F 30.1 in ENE 2 mph 3 mph 97% 0 in 0 W/m2
06:56 34 °F 33.3 °F 30.1 in NE 0.9 mph 3 mph 97% 0 in 0 W/m2
07:01 33.8 °F 33.3 °F 30.1 in East 0.9 mph 4 mph 98% 0 in 0 W/m2
07:06 33.8 °F 33.1 °F 30.1 in NE 0.9 mph 2 mph 97% 0 in 0 W/m2
07:11 33.8 °F 33.1 °F 30.1 in ENE 0.9 mph 2 mph 97% 0 in 0 W/m2
07:16 33.8 °F 33.1 °F 30.1 in ENE 0.9 mph 2 mph 97% 0 in 0 W/m2
07:21 34 °F 33.3 °F 30.1 in ENE 2.9 mph 3 mph 97% 0 in 0 W/m2
07:26 33.8 °F 33.1 °F 30.1 in ENE 4 mph 5 mph 97% 0 in 0 W/m2
07:31 33.8 °F 33.1 °F 30.1 in ENE 0.9 mph 3 mph 97% 0 in 0 W/m2
07:36 33.8 °F 33.3 °F 30.1 in ENE 2 mph 4 mph 98% 0 in 0 W/m2
07:41 33.8 °F 33.3 °F 30.1 in NE 2 mph 4 mph 98% 0 in 0 W/m2
07:46 33.8 °F 33.3 °F 30.1 in East 2 mph 2 mph 98% 0 in 0 W/m2
07:51 33.8 °F 33.1 °F 30.1 in Calm   1 mph 97% 0 in 0 W/m2
07:56 33.8 °F 33.1 °F 30.1 in ENE 2 mph 2 mph 97% 0 in 0 W/m2
08:01 33.8 °F 33.1 °F 30.1 in NE 2.9 mph 6 mph 97% 0 in 0 W/m2
08:06 33.8 °F 33.3 °F 30.1 in ENE 2.9 mph 5 mph 98% 0 in 0 W/m2
08:11 33.6 °F 33.1 °F 30.1 in ENE 2 mph 2 mph 98% 0 in 0 W/m2
08:16 33.8 °F 33.3 °F 30.1 in Calm   3 mph 98% 0 in 0 W/m2
08:21 33.8 °F 33.3 °F 30.1 in East 2 mph 3 mph 98% 0 in 0 W/m2
08:26 33.8 °F 33.3 °F 30.1 in ENE 2.9 mph 3 mph 98% 0 in 5 W/m2
08:31 33.8 °F 33.3 °F 30.1 in ENE 0.9 mph 5 mph 98% 0 in 5 W/m2
08:36 33.8 °F 33.3 °F 30.1 in SE 0.9 mph 3 mph 98% 0 in 7 W/m2
08:41 34 °F 33.4 °F 30.1 in ENE 2.9 mph 5 mph 98% 0 in 9 W/m2
08:46 34 °F 33.4 °F 30.1 in Calm   2 mph 98% 0 in 9 W/m2
08:51 34 °F 33.4 °F 30.1 in ENE 0.9 mph 4 mph 98% 0 in 16 W/m2
08:56 34 °F 33.4 °F 30.1 in NE 0.9 mph 3 mph 98% 0 in 14 W/m2
09:01 34 °F 33.4 °F 30.1 in NE 0.9 mph 3 mph 98% 0 in 19 W/m2
09:06 34 °F 33.4 °F 30.1 in ENE 2 mph 3 mph 98% 0 in 14 W/m2
09:11 34 °F 33.4 °F 30.1 in Calm   3 mph 98% 0 in 21 W/m2
09:16 34 °F 33.4 °F 30.1 in ENE 2 mph 6 mph 98% 0 in 21 W/m2
09:21 34 °F 33.4 °F 30.1 in NE 2 mph 5 mph 98% 0 in 28 W/m2
09:26 34 °F 33.4 °F 30.1 in ENE 2 mph 4 mph 98% 0 in 37 W/m2
09:31 34 °F 33.4 °F 30.1 in NE 2.9 mph 5 mph 98% 0 in 30 W/m2
09:36 34 °F 33.4 °F 30.1 in ESE 0.9 mph 4 mph 98% 0.01 in 32 W/m2
09:42 34 °F 33.4 °F 30.1 in NE 2.9 mph 4 mph 98% 0.01 in 44 W/m2
09:47 34 °F 33.4 °F 30.1 in ESE 0.9 mph 2 mph 98% 0.01 in 42 W/m2
09:52 34.2 °F 33.6 °F 30.1 in East 2.9 mph 4 mph 98% 0.01 in 51 W/m2
09:57 34.2 °F 33.6 °F 30.1 in Calm   1 mph 98% 0.01 in 46 W/m2
10:02 34.3 °F 33.8 °F 30.1 in NE 2.9 mph 4 mph 98% 0.01 in 47 W/m2
10:07 34.3 °F 33.8 °F 30.1 in ENE 2 mph 4 mph 98% 0.01 in 56 W/m2
10:12 34.3 °F 33.8 °F 30.1 in ENE 2 mph 3 mph 98% 0.01 in 53 W/m2
10:17 34.3 °F 33.8 °F 30.1 in Calm   3 mph 98% 0.01 in 56 W/m2
10:22 34.3 °F 33.8 °F 30.1 in ESE 0.9 mph 2 mph 98% 0.01 in 56 W/m2
10:27 34.5 °F 34 °F 30.1 in Calm   4 mph 98% 0.01 in 60 W/m2
10:35 34.7 °F 34.2 °F 30.1 in ENE 2.9 mph 4 mph 98% 0 in 67 W/m2
10:40 34.7 °F 34.2 °F 30.1 in ENE 0.9 mph 3 mph 98% 0 in 67 W/m2
10:45 34.7 °F 34.2 °F 30.1 in East 4 mph 4 mph 98% 0 in 72 W/m2
10:50 34.9 °F 34.3 °F 30.1 in Calm   5 mph 98% 0 in 63 W/m2
10:55 34.9 °F 34.3 °F 30.1 in ENE 2 mph 4 mph 98% 0 in 93 W/m2
11:00 34.9 °F 34.3 °F 30.1 in ENE 2 mph 5 mph 98% 0 in 79 W/m2
11:05 35.1 °F 34.5 °F 30.1 in ENE 0.9 mph 3 mph 98% 0 in 105 W/m2
11:14 35.1 °F 34.5 °F 30.1 in East 2 mph 3 mph 98% 0 in 91 W/m2
11:19 35.1 °F 34.5 °F 30.1 in NE 2 mph 4 mph 98% 0 in 88 W/m2
11:24 35.1 °F 34.5 °F 30.1 in Calm     98% 0 in 86 W/m2
11:29 35.2 °F 34.7 °F 30.1 in NE 2 mph 4 mph 98% 0 in 144 W/m2
11:34 35.4 °F 34.9 °F 30.1 in ESE 2 mph 3 mph 98% 0 in 62 W/m2
11:39 35.8 °F 35.2 °F 30.1 in East 2 mph 4 mph 98% 0 in 104 W/m2
11:44 36 °F 35.4 °F 30.1 in NNW 0.9 mph 2 mph 98% 0 in 69 W/m2
11:49 36 °F 35.4 °F 30.1 in ENE 2 mph 3 mph 98% 0 in 98 W/m2
11:54 36 °F 35.4 °F 30.1 in East 0.9 mph 5 mph 98% 0 in 51 W/m2
11:59 36 °F 35.4 °F 30.1 in Calm   1 mph 98% 0 in 53 W/m2
12:04 36 °F 35.4 °F 30.1 in ENE 0.9 mph 5 mph 98% 0 in 49 W/m2
12:09 36.1 °F 35.6 °F 30.1 in East 2.9 mph 6 mph 98% 0 in 37 W/m2
12:14 36.3 °F 35.8 °F 30.1 in Calm   3 mph 98% 0 in 47 W/m2
12:19 36.7 °F 36.1 °F 30.1 in NE 4 mph 4 mph 98% 0 in 40 W/m2
12:24 36.9 °F 36.3 °F 30.1 in North 2.9 mph 4 mph 98% 0 in 42 W/m2
12:29 36.9 °F 36.3 °F 30.1 in Calm   3 mph 98% 0 in 47 W/m2
12:34 36.9 °F 36.1 °F 30.1 in Calm   2 mph 97% 0 in 47 W/m2
12:39 37 °F 36.5 °F 30.1 in WNW 0.9 mph 3 mph 98% 0 in 40 W/m2
12:44 37 °F 36.3 °F 30.1 in ENE 2 mph 3 mph 97% 0 in 42 W/m2
12:49 37 °F 36.3 °F 30.1 in North 0.9 mph 1 mph 97% 0 in 37 W/m2
12:54 37.2 °F 36.5 °F 30.1 in ENE 2 mph 2 mph 97% 0 in 33 W/m2
12:59 37.2 °F 36.5 °F 30.1 in SE 2 mph 3 mph 97% 0 in 32 W/m2
13:04 37.6 °F 36.9 °F 30.1 in Calm   3 mph 97% 0 in 30 W/m2
13:09 37.8 °F 37 °F 30.1 in ESE 0.9 mph 2 mph 97% 0 in 30 W/m2
13:14 37.9 °F 37.2 °F 30.1 in Calm   3 mph 97% 0 in 32 W/m2
13:19 38.1 °F 37.4 °F 30.1 in Calm   4 mph 97% 0 in 30 W/m2
13:24 38.5 °F 37.8 °F 30.1 in WSW 2 mph 2 mph 97% 0 in 30 W/m2
13:29 38.7 °F 37.6 °F 30.1 in Calm   1 mph 96% 0 in 30 W/m2
13:34 38.8 °F 37.8 °F 30.1 in Calm   1 mph 96% 0 in 32 W/m2
13:39 39 °F 37.9 °F 30.1 in Calm   1 mph 96% 0 in 30 W/m2
13:44 39.2 °F 38.1 °F 30.1 in Calm   3 mph 96% 0 in 28 W/m2
13:49 39.6 °F 38.5 °F 30.1 in Calm   2 mph 96% 0 in 26 W/m2
13:54 39.7 °F 38.5 °F 30.1 in Calm   3 mph 95% 0 in 26 W/m2
13:59 39.9 °F 38.7 °F 30.1 in Calm   1 mph 95% 0 in 26 W/m2
14:04 40.1 °F 38.8 °F 30.1 in WNW 2 mph 2 mph 95% 0 in 26 W/m2
14:10 39.9 °F 38.3 °F 30.1 in SSW 0.9 mph 2 mph 94% 0 in 25 W/m2
14:15 39.9 °F 38.3 °F 30.1 in Calm     94% 0 in 25 W/m2
14:20 39.7 °F 38.1 °F 30.1 in Calm     94% 0 in 25 W/m2
14:25 40.1 °F 38.5 °F 30.1 in ENE 2 mph 3 mph 94% 0 in 23 W/m2
14:30 40.6 °F 39 °F 30.1 in Calm   2 mph 94% 0 in 23 W/m2
14:35 40.8 °F 39 °F 30.1 in SW 0.9 mph 1 mph 93% 0 in 23 W/m2
14:40 40.8 °F 38.7 °F 30.1 in Calm   2 mph 92% 0 in 23 W/m2
14:45 40.8 °F 39 °F 30.1 in East 0.9 mph 3 mph 93% 0 in 21 W/m2
14:50 41.2 °F 39 °F 30.1 in Calm   1 mph 92% 0 in 21 W/m2
14:55 40.8 °F 38.7 °F 30.1 in Calm   3 mph 92% 0 in 21 W/m2
15:00 40.6 °F 38.5 °F 30.1 in Calm     92% 0 in 21 W/m2
15:05 40.5 °F 38.3 °F 30.1 in Calm     92% 0 in 21 W/m2
15:10 40.5 °F 38.3 °F 30.1 in Calm     92% 0 in 21 W/m2
15:15 40.3 °F 38.1 °F 30.1 in Calm     92% 0 in 19 W/m2
15:20 39.9 °F 37.8 °F 30.1 in ESE 2 mph 2 mph 92% 0 in 19 W/m2
15:25 39.7 °F 37.9 °F 30.1 in Calm   2 mph 93% 0 in 19 W/m2
15:30 39.7 °F 37.9 °F 30.1 in Calm   1 mph 93% 0 in 18 W/m2
15:35 39.7 °F 38.1 °F 30.1 in Calm   2 mph 94% 0 in 18 W/m2
15:40 39.7 °F 38.1 °F 30.1 in SSW 0.9 mph 3 mph 94% 0 in 18 W/m2
15:45 39.7 °F 38.1 °F 30.1 in Calm   3 mph 94% 0 in 16 W/m2
15:50 39.7 °F 38.1 °F 30.1 in Calm     94% 0 in 16 W/m2
15:55 39.9 °F 38.3 °F 30.1 in Calm   3 mph 94% 0 in 14 W/m2
16:00 39.9 °F 38.3 °F 30.1 in Calm     94% 0 in 14 W/m2
16:05 40.1 °F 38.5 °F 30.1 in Calm     94% 0 in 12 W/m2
16:10 39.9 °F 38.3 °F 30.1 in Calm     94% 0 in 12 W/m2
16:15 39.7 °F 37.9 °F 30.1 in Calm     93% 0 in 11 W/m2
16:20 39.7 °F 37.9 °F 30.1 in Calm     93% 0 in 11 W/m2
Juneau County Weather
Compliments of Weather Underground - 4 mb